Historyczne dane pomiarowe

Dodano dane terminowe – wersja testowa.

Dane z okresu 1951-2019

Wersja bazy: 1.34 [2019-03-16, lista zmian], aktualizacja planowana na 2019-04-15

Dane meteo z obszaru Polski uzyskane na podstawie danych udostępnionych przez Instytut Meteorologii i Gospodarki Wodnej – Państwowy Instytut Badawczy.

 

Wybierz Datę:    

       

TemperaturaWilgotnośćWiatrCiśnienieOpadyŚniegCzas trwania zjawisk
 Stacja t tx tn tng RH VA  wxwx mslp ppp RRR   cm mm wxwxwxwxwxwxwx
1993-08-13 16.7 21.0 14.3- 77.5- 5.3 4.0---- 0.0------------
1993-08-14 14.1 21.0 5.5- 74.5- 2.7 2.7---- 0.0------------
1993-08-15 20.1 28.2 11.8- 66.8- 1.3 1.0---- 0.0------------
1993-08-16 21.9 30.1 14.2- 73.5- 1.3 0.3---- 3.5------------
1993-08-17 17.1 20.9 14.8- 75.5- 5.0 1.0---- 0.0------------
1993-08-18 13.2 16.5 8.5- 75.3- 5.0 3.0---- 0.0------------
1993-08-19 13.0 18.0 7.8- 78.0- 2.3 2.0---- 0.0------------
1993-08-20 14.8 19.2 8.8- 85.3- 3.0 2.0---- 0.0------------
1993-08-21 14.6 18.3 10.0- 87.3- 6.0 1.7---- 1.7------------
1993-08-22 14.1 17.2 9.8- 76.5- 4.0 2.0---- 1.5------------
1993-08-23 12.8 16.4 10.4- 86.5- 4.7 4.0---- 0.3------------
1993-08-24 12.5 16.5 6.2- 79.0- 4.0 2.0---- 2.9------------
1993-08-25 10.9 14.7 6.0- 90.8- 5.7 2.0---- 3.2------------
1993-08-26 10.8 14.4 7.8- 91.5- 6.0 2.0---- 1.1------------
1993-08-27 11.0 15.0 4.4- 93.0- 6.3 1.7---- 3.7------------
1993-08-28 12.8 15.3 8.0- 81.3- 4.7 1.3---- 7.9------------
1993-08-29 13.0 16.0 10.2- 82.5- 5.7 1.7---- 3.6------------
1993-08-30 10.7 13.1 9.1- 93.3- 7.3 2.0---- 11.5------------
1993-08-31 10.8 11.4 10.1- 96.3- 7.7 1.0---- 2.3------------
1993-09-01 12.0 15.6 10.0- 90.3- 5.7 1.7---- 0.6------------
1993-09-02 11.7 15.4 7.9- 89.8- 5.7 1.7---- 3.4------------
1993-09-03 12.1 14.5 10.0- 93.0- 5.7 2.0---- 1.2------------
1993-09-04 11.2 13.2 9.3- 91.3- 5.7 1.3---- 0.5------------
1993-09-05 9.6 12.4 7.2- 88.8- 6.0 1.7---- 0.4------------
1993-09-06 7.2 12.0 3.8- 87.8- 4.7 2.3---- 0.0------------
1993-09-07 6.6 10.0 3.6- 81.3- 3.3 2.0---- 0.0------------
1993-09-08 7.6 14.0 0.1- 78.8- 4.7 2.0---- 3.5------------
1993-09-09 8.3 10.9 7.2- 89.5- 8.0 1.3---- 4.7------------
1993-09-10 6.9 9.0 6.0- 90.8- 7.7 2.3---- 12.6------------
1993-09-11 7.9 8.9 7.0- 92.8- 7.7 1.7---- 1.1------------
221.7 ms

 

Źródłem pochodzenia danych jest Instytut Meteorologii i Gospodarki Wodnej – Państwowy Instytut Badawczy. Dane Instytutu Meteorologii i Gospodarki Wodnej – Państwowego Instytutu Badawczego zostały przetworzone.

Dane źródłowe można odnaleźć na stronie https://dane.imgw.pl